Terminal Aerodrome Forecast
Issued by NWS

Home | Current Version | Previous Version | Text Only | Print | Product List | Glossary On
Versions: 1 2 3 4 5 6 7 8 9 10 11 12 13 14 15 16 17 18 19
000
FTUS43 KDVN 151700
TAFCID
TAF
KCID 151720Z 1518/1618 32012KT P6SM SCT040
     FM152200 25007KT P6SM SKC
     FM160700 14014KT P6SM BKN200
     FM161400 16022G30KT P6SM BKN200=

USA.gov is the U.S. government's official web portal to all federal, state and local government web resources and services.